aviador You're here:

MMLP Decoded Metar

LA PAZ in MEXICO
Report Time2017-07-21 01:40:00
UTC Time2017-07-21 02:54:24
Flight Rules Old
Wind190° at 10 kt
W.Decomp.*RWY 18: 10.0 kt HW -0 kt LCW
W.Rank190° ranks 3
Current wind is above 190° avg. (6.5)
Visibility9999 m
Phenomena:N/A
Clouds:N/A
Expected CloudBase > 9,200 ft AGL from Temp-Dew spread
CeilingNone
Temp34°C (ISA +19)
Dew Point11°C (24% RH)
Heat Index32.4°C
AAT30.6°C
QNH1012 hPa
Density Alt2,457 ft
Elevation69 ft
Report Wrong Elevation
Raw Report
MMLP 210140Z 19010KT 10SM SKC 34/11 A2989 RMK ISOL CI=

Extra information for MMLP:More info

Metar Taf Metar & Taf Last 4 Metars F.Rules Stats Wind Profile Meteogram Temp Stats Airport Information Weather charts Add Link Nearby VenuesMetar ALERT Operation Metar Decoded Social comments